Warren Jr — WDH4232 — position and weather

sailwx.info

Track history (hours):
 
Tides and Currents Weather Stations Pressure Air Temp Water Temp Dewpoint Dewpoint Depression Visibility Wind Speed Wind Dir Waves Ship Positions

Warren Jr

Owner: Warren Jr, LLC, Cape May, NJ. More information available from US FCC via Universal Licensing System and Coast Guard Vessel Documentation Center.

Last reported at 2018-Feb-23 16:30 UTC. Time now 2018-Feb-23 16:55 UTC.
Position N 42°26' W 070°51'.

Length 46 m; draft 3.2 m.

MMSI: 367615560.

Date/timePositionNaut miles runAvg speedWind from/ knotsBaromVisibWave heightAir tempDewpointWater temp
2018-Feb-23 16:30N 42°26' W 070°51'1 1.4
2018-Feb-23 16:00N 42°25' W 070°52'3 6.0
2018-Feb-23 15:30N 42°23' W 070°54'5 9.6
2018-Feb-23 15:01N 42°20' W 070°59'4 7.7
2018-Feb-23 14:30N 42°23' W 071°03'0 0.0
2018-Feb-23 13:59N 42°23' W 071°03'0 0.0
2018-Feb-23 13:29N 42°23' W 071°03'0 0.0
2018-Feb-23 13:00N 42°23' W 071°03'0 0.0
2018-Feb-23 12:30N 42°23' W 071°03'0 0.0
2018-Feb-23 12:00N 42°23' W 071°03'0 0.0
2018-Feb-23 11:30N 42°23' W 071°03'0 0.0
2018-Feb-23 11:00N 42°23' W 071°03'0 0.0
2018-Feb-23 10:30N 42°23' W 071°03'0 0.0
2018-Feb-23 10:00N 42°23' W 071°03'0 0.0
2018-Feb-23 09:30N 42°23' W 071°03'0 0.0
2018-Feb-23 08:59N 42°23' W 071°03'0 0.0
2018-Feb-23 08:29N 42°23' W 071°03'0 0.0
2018-Feb-23 07:59N 42°23' W 071°03'0 0.0
2018-Feb-23 07:30N 42°23' W 071°03'0 0.0
2018-Feb-23 07:00N 42°23' W 071°03'0 0.0
2018-Feb-23 06:30N 42°23' W 071°03'0 0.0
2018-Feb-23 05:57N 42°23' W 071°03'0 0.0
2018-Feb-23 05:30N 42°23' W 071°03'0 0.0
2018-Feb-23 05:00N 42°23' W 071°03'0 0.0
2018-Feb-23 04:30N 42°23' W 071°03'0 0.0
2018-Feb-23 03:59N 42°23' W 071°03'0 0.0
2018-Feb-23 03:30N 42°23' W 071°03'0 0.0
2018-Feb-23 02:59N 42°23' W 071°03'0 0.0
2018-Feb-23 02:30N 42°23' W 071°03'0 0.0
2018-Feb-23 02:00N 42°23' W 071°03'0 0.0
2018-Feb-23 01:29N 42°23' W 071°03'0 0.0
2018-Feb-23 00:59N 42°23' W 071°03'0 0.0
2018-Feb-23 00:29N 42°23' W 071°03'0 0.0
2018-Feb-23 00:00N 42°23' W 071°03'0 0.0
2018-Feb-22 23:29N 42°23' W 071°03'0 0.0
2018-Feb-22 23:00N 42°23' W 071°03'0 0.0
2018-Feb-22 22:30N 42°23' W 071°03'2 4.9
2018-Feb-22 22:00N 42°21' W 071°01'4 7.6
2018-Feb-22 21:30N 42°21' W 070°56'4 8.8
2018-Feb-22 21:00N 42°25' W 070°53'2 4.2
2018-Feb-22 20:30N 42°26' W 070°51'0 0.6
2018-Feb-22 20:00N 42°26' W 070°51'1 1.4
2018-Feb-22 19:30N 42°26' W 070°52'1 1.7
2018-Feb-22 19:00N 42°26' W 070°53'0 0.5
2018-Feb-22 18:30N 42°26' W 070°52'0 0.6
2018-Feb-22 18:00N 42°26' W 070°52'1 1.3
2018-Feb-22 17:30N 42°26' W 070°51'0 1.0
2018-Feb-22 17:00N 42°26' W 070°51'0 0.6
2018-Feb-22 16:29N 42°26' W 070°51'1 2.1
2018-Feb-22 15:59N 42°25' W 070°52'0 0.4
2018-Feb-22 15:30N 42°25' W 070°52'3 5.2
2018-Feb-22 14:57N 42°23' W 070°54'5 8.7
2018-Feb-22 14:25N 42°20' W 070°59'3 8.4
2018-Feb-22 14:00N 42°22' W 071°03'1 0.1
2018-Feb-22 08:56N 42°23' W 071°03'0 0.0
2018-Feb-21 22:46N 42°23' W 071°03'1 2.8
2018-Feb-21 22:30N 42°22' W 071°03'4 8.3
2018-Feb-21 21:59N 42°20' W 070°58'4 8.7
2018-Feb-21 21:30N 42°23' W 070°54'3 5.5
2018-Feb-21 21:00N 42°25' W 070°51'1 1.3
2018-Feb-21 20:30N 42°26' W 070°51'0 0.7
2018-Feb-21 20:01N 42°26' W 070°52'1 1.1
2018-Feb-21 19:30N 42°26' W 070°51'2 3.0
2018-Feb-21 19:00N 42°25' W 070°52'1 2.0
2018-Feb-21 18:29N 42°26' W 070°52'0 0.4
2018-Feb-21 18:00N 42°25' W 070°52'0 0.8
2018-Feb-21 17:30N 42°26' W 070°51'0 0.4
2018-Feb-21 17:00N 42°26' W 070°52'0 0.5
2018-Feb-21 16:30N 42°25' W 070°52'1 1.1
2018-Feb-21 16:00N 42°25' W 070°52'0 0.5
2018-Feb-21 15:30N 42°25' W 070°53'6 9.6
2018-Feb-21 14:54N 42°20' W 070°57'4 9.1
2018-Feb-21 14:30N 42°21' W 071°02'2 0.1
2018-Feb-21 01:18N 42°23' W 071°03'0 0.0
2018-Feb-20 23:45N 42°23' W 071°03'0 0.0
2018-Feb-20 15:33N 42°23' W 071°03'0 0.0
2018-Feb-20 13:33N 42°23' W 071°03'0 0.0
2018-Feb-20 13:09N 42°23' W 071°03'0 0.0
2018-Feb-20 12:57N 42°23' W 071°03'0 0.0
2018-Feb-20 12:30N 42°23' W 071°03'0 0.0
2018-Feb-20 11:15N 42°23' W 071°03'0 0.0
2018-Feb-20 09:57N 42°23' W 071°03'0 0.0
2018-Feb-20 09:15N 42°23' W 071°03'0 0.0
2018-Feb-20 08:21N 42°23' W 071°03'0 0.0
2018-Feb-20 07:51N 42°23' W 071°03'0 0.0
2018-Feb-20 07:30N 42°23' W 071°03'0 0.0
2018-Feb-20 06:57N 42°23' W 071°03'0 0.0
2018-Feb-20 06:27N 42°23' W 071°03'0 0.0
2018-Feb-20 06:00N 42°23' W 071°03'0 0.0
2018-Feb-20 05:27N 42°23' W 071°03'0 0.0
2018-Feb-20 04:57N 42°23' W 071°03'0 0.0
2018-Feb-20 04:30N 42°23' W 071°03'0 0.0
2018-Feb-20 03:57N 42°23' W 071°03'0 0.0
2018-Feb-20 03:30N 42°23' W 071°03'0 0.0
2018-Feb-20 02:54N 42°23' W 071°03'0 0.0
2018-Feb-20 02:27N 42°23' W 071°03'0 0.0
2018-Feb-20 01:51N 42°23' W 071°03'0 0.0
2018-Feb-20 01:03N 42°23' W 071°03'0 0.0
2018-Feb-20 00:57N 42°23' W 071°03'0 0.0
2018-Feb-20 00:27N 42°23' W 071°03'0 0.0
2018-Feb-20 00:00N 42°23' W 071°03'0 0.0
2018-Feb-19 23:21N 42°23' W 071°03'0 0.0
2018-Feb-19 22:54N 42°23' W 071°03'0 0.0
2018-Feb-19 22:30N 42°23' W 071°03'0 0.0
2018-Feb-19 21:57N 42°23' W 071°03'0 0.0
2018-Feb-19 21:24N 42°23' W 071°03'0 0.0
2018-Feb-19 21:00N 42°23' W 071°03'0 0.0
2018-Feb-19 20:30N 42°23' W 071°03'0 0.0
2018-Feb-19 20:00N 42°23' W 071°03'0 0.0
2018-Feb-19 19:30N 42°23' W 071°03'0 0.0
2018-Feb-19 19:00N 42°23' W 071°03'0 0.0
2018-Feb-19 18:27N 42°23' W 071°03'0 0.0
2018-Feb-19 18:00N 42°23' W 071°03'0 0.0
2018-Feb-19 17:30N 42°23' W 071°03'0 0.0
2018-Feb-19 17:00N 42°23' W 071°03'0 0.0
2018-Feb-19 16:30N 42°23' W 071°03'0 0.0
2018-Feb-19 16:00N 42°23' W 071°03'0 0.0
2018-Feb-19 15:21N 42°23' W 071°03'0 0.0
2018-Feb-19 14:51N 42°23' W 071°03'0 0.0
2018-Feb-19 14:18N 42°23' W 071°03'0 0.0
2018-Feb-19 14:00N 42°23' W 071°03'0 0.0
2018-Feb-19 13:30N 42°23' W 071°03'0 0.0
2018-Feb-19 13:00N 42°23' W 071°03'0 0.0
2018-Feb-19 12:27N 42°23' W 071°03'0 0.0
2018-Feb-19 09:54N 42°23' W 071°03'0 0.0
2018-Feb-19 08:15N 42°23' W 071°03'0 0.0
2018-Feb-19 07:57N 42°23' W 071°03'0 0.0
2018-Feb-19 07:30N 42°23' W 071°03'0 0.0
2018-Feb-19 06:57N 42°23' W 071°03'0 0.0
2018-Feb-19 06:30N 42°23' W 071°03'0 0.0
2018-Feb-19 05:57N 42°23' W 071°03'0 0.0
2018-Feb-19 05:27N 42°23' W 071°03'0 0.0
2018-Feb-19 04:51N 42°23' W 071°03'0 0.0
2018-Feb-19 04:27N 42°23' W 071°03'0 0.0
2018-Feb-19 02:15N 42°23' W 071°03'0 0.0
2018-Feb-19 01:15N 42°23' W 071°03'0 0.0
2018-Feb-19 01:00N 42°23' W 071°03'0 0.0
2018-Feb-18 22:09N 42°23' W 071°03'0 0.0
2018-Feb-18 20:42N 42°23' W 071°03'0 0.0
2018-Feb-18 20:24N 42°23' W 071°03'0 0.0
2018-Feb-18 20:00N 42°23' W 071°03'0 0.0
2018-Feb-18 19:30N 42°23' W 071°03'0 0.0
2018-Feb-18 18:57N 42°23' W 071°03'0 0.0
2018-Feb-18 18:24N 42°23' W 071°03'0 0.0
2018-Feb-18 17:45N 42°23' W 071°03'0 0.0
2018-Feb-18 17:21N 42°23' W 071°03'0 0.0
2018-Feb-18 17:00N 42°23' W 071°03'0 0.0
2018-Feb-18 16:24N 42°23' W 071°03'0 0.0
2018-Feb-18 15:57N 42°23' W 071°03'0 0.0
2018-Feb-18 15:27N 42°23' W 071°03'0 0.0
2018-Feb-18 15:00N 42°23' W 071°03'0 0.0
2018-Feb-18 14:30N 42°23' W 071°03'0 0.0
2018-Feb-18 13:57N 42°23' W 071°03'0 0.0
2018-Feb-18 13:27N 42°23' W 071°03'0 0.0
2018-Feb-18 12:06N 42°23' W 071°03'0 0.0
2018-Feb-18 11:39N 42°23' W 071°03'0 0.0
2018-Feb-18 11:27N 42°23' W 071°03'0 0.0
2018-Feb-18 09:33N 42°23' W 071°03'0 0.0
2018-Feb-18 09:24N 42°23' W 071°03'0 0.0
2018-Feb-18 08:51N 42°23' W 071°03'0 0.0
2018-Feb-18 08:27N 42°23' W 071°03'0 0.0
2018-Feb-18 08:00N 42°23' W 071°03'0 0.0
2018-Feb-18 07:30N 42°23' W 071°03'0 0.0
2018-Feb-18 07:00N 42°23' W 071°03'0 0.0
2018-Feb-18 06:30N 42°23' W 071°03'0 0.0
2018-Feb-18 06:00N 42°23' W 071°03'0 0.0
2018-Feb-18 05:30N 42°23' W 071°03'0 0.0
2018-Feb-18 05:00N 42°23' W 071°03'0 0.0
2018-Feb-18 04:30N 42°23' W 071°03'0 0.0
2018-Feb-18 04:00N 42°23' W 071°03'0 0.0
2018-Feb-18 03:30N 42°23' W 071°03'0 0.0
2018-Feb-18 03:00N 42°23' W 071°03'0 0.0
2018-Feb-18 02:30N 42°23' W 071°03'0 0.0
2018-Feb-18 02:00N 42°23' W 071°03'0 0.0
2018-Feb-18 01:30N 42°23' W 071°03'0 0.0
2018-Feb-18 01:00N 42°23' W 071°03'0 0.0
2018-Feb-18 00:24N 42°23' W 071°03'0 0.0
2018-Feb-18 00:00N 42°23' W 071°03'0 0.0
2018-Feb-17 23:30N 42°23' W 071°03'0 0.0
2018-Feb-17 22:54N 42°23' W 071°03'0 0.0
2018-Feb-17 22:24N 42°23' W 071°03'0 0.0
2018-Feb-17 22:00N 42°23' W 071°03'0 0.0
2018-Feb-17 21:24N 42°23' W 071°03'0 0.0
2018-Feb-17 21:00N 42°23' W 071°03'0 0.0
2018-Feb-17 20:24N 42°23' W 071°03'0 0.0
2018-Feb-17 20:00N 42°23' W 071°03'0 0.0
2018-Feb-17 19:30N 42°23' W 071°03'0 0.0
2018-Feb-17 18:54N 42°23' W 071°03'0 0.0
2018-Feb-17 18:30N 42°23' W 071°03'0 0.0
2018-Feb-17 17:51N 42°23' W 071°03'0 0.0
2018-Feb-17 17:30N 42°23' W 071°03'0 0.0
2018-Feb-17 16:54N 42°23' W 071°03'0 0.0
2018-Feb-17 16:30N 42°23' W 071°03'0 0.0
2018-Feb-17 16:00N 42°23' W 071°03'0 0.0
2018-Feb-17 15:27N 42°23' W 071°03'0 0.0
2018-Feb-17 14:54N 42°23' W 071°03'0 0.0
2018-Feb-17 14:24N 42°23' W 071°03'0 0.0
2018-Feb-17 08:00N 42°23' W 071°03'0 0.0
2018-Feb-17 00:24N 42°23' W 071°03'0 0.0
2018-Feb-16 23:45N 42°23' W 071°03'0 0.0
2018-Feb-16 19:39N 42°23' W 071°03'0 0.0
2018-Feb-16 19:27N 42°23' W 071°03'0 0.0
2018-Feb-16 18:27N 42°23' W 071°03'0 0.0
2018-Feb-16 17:45N 42°23' W 071°03'0 0.0
2018-Feb-16 17:15N 42°23' W 071°03'0 0.0
2018-Feb-16 16:39N 42°23' W 071°03'0 0.0
2018-Feb-16 16:15N 42°23' W 071°03'0 0.0
2018-Feb-16 16:00N 42°23' W 071°03'0 0.0
2018-Feb-16 15:24N 42°23' W 071°03'0 0.0
2018-Feb-16 14:48N 42°23' W 071°03'0 0.0
2018-Feb-16 14:27N 42°23' W 071°03'0 0.0
2018-Feb-16 13:36N 42°23' W 071°03'0 0.0
2018-Feb-16 13:27N 42°23' W 071°03'0 0.0
2018-Feb-16 12:51N 42°23' W 071°03'0 0.0
2018-Feb-16 12:27N 42°23' W 071°03'0 0.0
2018-Feb-16 11:24N 42°23' W 071°03'0 0.0
2018-Feb-16 10:57N 42°23' W 071°03'0 0.0
2018-Feb-16 10:30N 42°23' W 071°03'0 0.0
2018-Feb-16 08:45N 42°23' W 071°03'0 0.0
2018-Feb-16 08:27N 42°23' W 071°03'0 0.0
2018-Feb-16 07:51N 42°23' W 071°03'0 0.0
2018-Feb-16 06:48N 42°23' W 071°03'0 0.0
2018-Feb-16 06:30N 42°23' W 071°03'0 0.0
2018-Feb-16 05:39N 42°23' W 071°03'0 0.0
2018-Feb-16 05:12N 42°23' W 071°03'0 0.0
2018-Feb-16 04:48N 42°23' W 071°03'0 0.0
2018-Feb-16 04:30N 42°23' W 071°03'0 0.0
2018-Feb-16 03:33N 42°23' W 071°03'0 0.0
2018-Feb-16 03:21N 42°23' W 071°03'0 0.0
2018-Feb-16 02:57N 42°23' W 071°03'0 0.0
2018-Feb-16 02:30N 42°23' W 071°03'0 0.0
2018-Feb-16 01:51N 42°23' W 071°03'0 0.0
2018-Feb-16 01:30N 42°23' W 071°03'0 0.0
2018-Feb-16 01:00N 42°23' W 071°03'2 4.7
2018-Feb-16 00:30N 42°21' W 071°01'4 8.4
2018-Feb-15 23:59N 42°22' W 070°55'5 9.6
2018-Feb-15 23:30N 42°23' W 070°50'5 9.9
2018-Feb-15 22:59N 42°23' W 070°43'5 9.9
2018-Feb-15 22:30N 42°23' W 070°36'3 5.5
2018-Feb-15 22:00N 42°23' W 070°32'1 2.4
2018-Feb-15 21:30N 42°23' W 070°33'0 0.8
2018-Feb-15 21:00N 42°23' W 070°33'0 0.5
2018-Feb-15 20:30N 42°23' W 070°34'1 2.3
2018-Feb-15 20:00N 42°24' W 070°34'0 0.9
2018-Feb-15 19:30N 42°24' W 070°34'0 0.8
2018-Feb-15 18:59N 42°23' W 070°35'0 0.5
2018-Feb-15 18:30N 42°23' W 070°35'0 0.4
2018-Feb-15 18:00N 42°23' W 070°35'0 0.4
2018-Feb-15 17:30N 42°23' W 070°35'0 0.3
2018-Feb-15 17:00N 42°23' W 070°35'1 1.6
2018-Feb-15 16:30N 42°23' W 070°34'0 0.3
2018-Feb-15 16:00N 42°23' W 070°34'0 0.7
2018-Feb-15 15:30N 42°23' W 070°34'2 3.0
2018-Feb-15 15:00N 42°24' W 070°32'0 0.7
2018-Feb-15 14:30N 42°24' W 070°33'0 0.1
2018-Feb-15 14:00N 42°24' W 070°33'0 0.1
2018-Feb-15 13:30N 42°24' W 070°33'0 0.2
2018-Feb-15 13:00N 42°24' W 070°33'1 1.0
2018-Feb-15 12:30N 42°24' W 070°33'0 0.4
2018-Feb-15 12:00N 42°24' W 070°33'0 0.4
2018-Feb-15 11:30N 42°24' W 070°33'0 0.6
2018-Feb-15 11:00N 42°23' W 070°33'0 0.9
2018-Feb-15 10:30N 42°24' W 070°32'1 1.5
2018-Feb-15 10:00N 42°25' W 070°32'2 3.6
2018-Feb-15 09:30N 42°26' W 070°31'1 1.7
2018-Feb-15 09:00N 42°26' W 070°32'2 3.0
2018-Feb-15 08:30N 42°24' W 070°32'1 2.8
2018-Feb-15 08:00N 42°24' W 070°31'0 0.4
2018-Feb-15 07:30N 42°24' W 070°30'0 0.8
2018-Feb-15 07:00N 42°24' W 070°31'0 0.8
2018-Feb-15 06:30N 42°24' W 070°31'2 3.4
2018-Feb-15 06:00N 42°25' W 070°30'1 1.4
2018-Feb-15 05:30N 42°26' W 070°30'0 0.7
2018-Feb-15 05:00N 42°26' W 070°30'0 0.6
2018-Feb-15 04:30N 42°25' W 070°30'0 0.6
2018-Feb-15 04:00N 42°25' W 070°31'0 0.7
2018-Feb-15 03:30N 42°25' W 070°31'0 0.7
2018-Feb-15 03:00N 42°24' W 070°31'0 0.8
2018-Feb-15 02:30N 42°24' W 070°31'0 0.6
2018-Feb-15 02:00N 42°24' W 070°31'0 0.5
2018-Feb-15 01:30N 42°24' W 070°31'0 0.5
2018-Feb-15 01:00N 42°23' W 070°31'0 0.4
2018-Feb-15 00:30N 42°23' W 070°31'0 0.3
2018-Feb-15 00:00N 42°23' W 070°31'0 0.4
2018-Feb-14 23:30N 42°23' W 070°31'0 0.3
2018-Feb-14 23:00N 42°23' W 070°31'0 0.3
2018-Feb-14 22:30N 42°23' W 070°31'1 1.0
2018-Feb-14 22:00N 42°23' W 070°32'1 3.0
2018-Feb-14 21:30N 42°25' W 070°31'0 0.6
2018-Feb-14 21:00N 42°24' W 070°32'0 0.7
2018-Feb-14 20:30N 42°24' W 070°32'0 0.6
2018-Feb-14 20:00N 42°24' W 070°32'1 2.0
2018-Feb-14 19:30N 42°23' W 070°33'0 0.3
2018-Feb-14 19:00N 42°23' W 070°33'1 2.7
2018-Feb-14 18:30N 42°25' W 070°33'1 1.6
2018-Feb-14 18:00N 42°25' W 070°33'2 4.1
2018-Feb-14 17:30N 42°23' W 070°33'1 1.6
2018-Feb-14 17:00N 42°24' W 070°32'2 4.1
2018-Feb-14 16:30N 42°23' W 070°30'1 2.5
2018-Feb-14 16:00N 42°24' W 070°31'2 4.3
2018-Feb-14 15:30N 42°26' W 070°32'0 0.4
2018-Feb-14 15:00N 42°26' W 070°33'1 1.1
2018-Feb-14 14:30N 42°25' W 070°33'1 1.0
2018-Feb-14 14:00N 42°25' W 070°32'1 1.0
2018-Feb-14 13:30N 42°24' W 070°32'1 1.4
2018-Feb-14 13:00N 42°25' W 070°32'1 1.2
2018-Feb-14 12:30N 42°25' W 070°32'1 1.1
2018-Feb-14 12:00N 42°25' W 070°32'1 1.1
2018-Feb-14 11:30N 42°24' W 070°32'1 1.3
2018-Feb-14 11:00N 42°25' W 070°31'1 2.3
2018-Feb-14 10:30N 42°25' W 070°30'0 0.9
2018-Feb-14 10:00N 42°25' W 070°30'0 1.0
2018-Feb-14 09:30N 42°25' W 070°31'0 0.9
2018-Feb-14 09:00N 42°24' W 070°31'0 0.9
2018-Feb-14 08:30N 42°24' W 070°31'0 0.5
2018-Feb-14 08:00N 42°24' W 070°31'2 3.5
2018-Feb-14 07:30N 42°25' W 070°30'0 1.0
2018-Feb-14 07:00N 42°25' W 070°30'1 1.0
2018-Feb-14 06:30N 42°24' W 070°30'1 1.1
2018-Feb-14 06:00N 42°24' W 070°31'1 1.1
2018-Feb-14 05:30N 42°23' W 070°31'1 1.1
2018-Feb-14 05:00N 42°23' W 070°32'1 2.5
2018-Feb-14 04:30N 42°24' W 070°33'1 1.0
2018-Feb-14 04:00N 42°24' W 070°34'1 1.1
2018-Feb-14 03:30N 42°23' W 070°34'1 1.1
2018-Feb-14 03:00N 42°23' W 070°34'0 0.9
2018-Feb-14 02:30N 42°23' W 070°34'1 1.8
2018-Feb-14 02:00N 42°24' W 070°35'0 1.0
2018-Feb-14 01:30N 42°23' W 070°34'0 1.0
2018-Feb-14 01:00N 42°23' W 070°34'0 0.9
2018-Feb-14 00:30N 42°23' W 070°34'1 2.3
2018-Feb-14 00:00N 42°23' W 070°35'0 0.8
2018-Feb-13 23:30N 42°23' W 070°35'0 0.6
2018-Feb-13 23:00N 42°23' W 070°34'0 0.5
2018-Feb-13 22:30N 42°23' W 070°34'0 0.6
2018-Feb-13 22:00N 42°23' W 070°34'1 2.2
2018-Feb-13 21:30N 42°22' W 070°33'0 0.7
2018-Feb-13 21:00N 42°22' W 070°33'2 3.6
2018-Feb-13 20:30N 42°24' W 070°32'1 2.4
2018-Feb-13 20:00N 42°23' W 070°34'1 1.0
2018-Feb-13 19:30N 42°22' W 070°34'1 1.6
2018-Feb-13 19:00N 42°22' W 070°33'1 2.9
2018-Feb-13 18:30N 42°24' W 070°32'2 2.2
2018-Feb-13 17:28N 42°21' W 070°32'2 3.7
2018-Feb-13 17:00N 42°23' W 070°32'2 3.9
2018-Feb-13 16:30N 42°25' W 070°32'  
Track history (hours):
 
Tides and Currents Weather Stations Pressure Air Temp Water Temp Dewpoint Dewpoint Depression Visibility Wind Speed Wind Dir Waves Ship Positions

Warren Jr

Owner: Warren Jr, LLC, Cape May, NJ. More information available from US FCC via Universal Licensing System and Coast Guard Vessel Documentation Center.

Last reported at 2018-Feb-23 16:30 UTC. Time now 2018-Feb-23 16:55 UTC.
Position N 42°26' W 070°51'.

Length 46 m; draft 3.2 m.

MMSI: 367615560.

Date/timePositionNaut miles runAvg speedWind from/ knotsBaromVisibWave heightAir tempDewpointWater temp
2018-Feb-23 16:30N 42°26' W 070°51'1 1.4
2018-Feb-23 16:00N 42°25' W 070°52'3 6.0
2018-Feb-23 15:30N 42°23' W 070°54'5 9.6
2018-Feb-23 15:01N 42°20' W 070°59'4 7.7
2018-Feb-23 14:30N 42°23' W 071°03'0 0.0
2018-Feb-23 13:59N 42°23' W 071°03'0 0.0
2018-Feb-23 13:29N 42°23' W 071°03'0 0.0
2018-Feb-23 13:00N 42°23' W 071°03'0 0.0
2018-Feb-23 12:30N 42°23' W 071°03'0 0.0
2018-Feb-23 12:00N 42°23' W 071°03'0 0.0
2018-Feb-23 11:30N 42°23' W 071°03'0 0.0
2018-Feb-23 11:00N 42°23' W 071°03'0 0.0
2018-Feb-23 10:30N 42°23' W 071°03'0 0.0
2018-Feb-23 10:00N 42°23' W 071°03'0 0.0
2018-Feb-23 09:30N 42°23' W 071°03'0 0.0
2018-Feb-23 08:59N 42°23' W 071°03'0 0.0
2018-Feb-23 08:29N 42°23' W 071°03'0 0.0
2018-Feb-23 07:59N 42°23' W 071°03'0 0.0
2018-Feb-23 07:30N 42°23' W 071°03'0 0.0
2018-Feb-23 07:00N 42°23' W 071°03'0 0.0
2018-Feb-23 06:30N 42°23' W 071°03'0 0.0
2018-Feb-23 05:57N 42°23' W 071°03'0 0.0
2018-Feb-23 05:30N 42°23' W 071°03'0 0.0
2018-Feb-23 05:00N 42°23' W 071°03'0 0.0
2018-Feb-23 04:30N 42°23' W 071°03'0 0.0
2018-Feb-23 03:59N 42°23' W 071°03'0 0.0
2018-Feb-23 03:30N 42°23' W 071°03'0 0.0
2018-Feb-23 02:59N 42°23' W 071°03'0 0.0
2018-Feb-23 02:30N 42°23' W 071°03'0 0.0
2018-Feb-23 02:00N 42°23' W 071°03'0 0.0
2018-Feb-23 01:29N 42°23' W 071°03'0 0.0
2018-Feb-23 00:59N 42°23' W 071°03'0 0.0
2018-Feb-23 00:29N 42°23' W 071°03'0 0.0
2018-Feb-23 00:00N 42°23' W 071°03'0 0.0
2018-Feb-22 23:29N 42°23' W 071°03'0 0.0
2018-Feb-22 23:00N 42°23' W 071°03'0 0.0
2018-Feb-22 22:30N 42°23' W 071°03'2 4.9
2018-Feb-22 22:00N 42°21' W 071°01'4 7.6
2018-Feb-22 21:30N 42°21' W 070°56'4 8.8
2018-Feb-22 21:00N 42°25' W 070°53'2 4.2
2018-Feb-22 20:30N 42°26' W 070°51'0 0.6
2018-Feb-22 20:00N 42°26' W 070°51'1 1.4
2018-Feb-22 19:30N 42°26' W 070°52'1 1.7
2018-Feb-22 19:00N 42°26' W 070°53'0 0.5
2018-Feb-22 18:30N 42°26' W 070°52'0 0.6
2018-Feb-22 18:00N 42°26' W 070°52'1 1.3
2018-Feb-22 17:30N 42°26' W 070°51'0 1.0
2018-Feb-22 17:00N 42°26' W 070°51'0 0.6
2018-Feb-22 16:29N 42°26' W 070°51'1 2.1
2018-Feb-22 15:59N 42°25' W 070°52'0 0.4
2018-Feb-22 15:30N 42°25' W 070°52'3 5.2
2018-Feb-22 14:57N 42°23' W 070°54'5 8.7
2018-Feb-22 14:25N 42°20' W 070°59'3 8.4
2018-Feb-22 14:00N 42°22' W 071°03'1 0.1
2018-Feb-22 08:56N 42°23' W 071°03'0 0.0
2018-Feb-21 22:46N 42°23' W 071°03'1 2.8
2018-Feb-21 22:30N 42°22' W 071°03'4 8.3
2018-Feb-21 21:59N 42°20' W 070°58'4 8.7
2018-Feb-21 21:30N 42°23' W 070°54'3 5.5
2018-Feb-21 21:00N 42°25' W 070°51'1 1.3
2018-Feb-21 20:30N 42°26' W 070°51'0 0.7
2018-Feb-21 20:01N 42°26' W 070°52'1 1.1
2018-Feb-21 19:30N 42°26' W 070°51'2 3.0
2018-Feb-21 19:00N 42°25' W 070°52'1 2.0
2018-Feb-21 18:29N 42°26' W 070°52'0 0.4
2018-Feb-21 18:00N 42°25' W 070°52'0 0.8
2018-Feb-21 17:30N 42°26' W 070°51'0 0.4
2018-Feb-21 17:00N 42°26' W 070°52'0 0.5
2018-Feb-21 16:30N 42°25' W 070°52'1 1.1
2018-Feb-21 16:00N 42°25' W 070°52'0 0.5
2018-Feb-21 15:30N 42°25' W 070°53'6 9.6
2018-Feb-21 14:54N 42°20' W 070°57'4 9.1
2018-Feb-21 14:30N 42°21' W 071°02'2 0.1
2018-Feb-21 01:18N 42°23' W 071°03'0 0.0
2018-Feb-20 23:45N 42°23' W 071°03'0 0.0
2018-Feb-20 15:33N 42°23' W 071°03'0 0.0
2018-Feb-20 13:33N 42°23' W 071°03'0 0.0
2018-Feb-20 13:09N 42°23' W 071°03'0 0.0
2018-Feb-20 12:57N 42°23' W 071°03'0 0.0
2018-Feb-20 12:30N 42°23' W 071°03'0 0.0
2018-Feb-20 11:15N 42°23' W 071°03'0 0.0
2018-Feb-20 09:57N 42°23' W 071°03'0 0.0
2018-Feb-20 09:15N 42°23' W 071°03'0 0.0
2018-Feb-20 08:21N 42°23' W 071°03'0 0.0
2018-Feb-20 07:51N 42°23' W 071°03'0 0.0
2018-Feb-20 07:30N 42°23' W 071°03'0 0.0
2018-Feb-20 06:57N 42°23' W 071°03'0 0.0
2018-Feb-20 06:27N 42°23' W 071°03'0 0.0
2018-Feb-20 06:00N 42°23' W 071°03'0 0.0
2018-Feb-20 05:27N 42°23' W 071°03'0 0.0
2018-Feb-20 04:57N 42°23' W 071°03'0 0.0
2018-Feb-20 04:30N 42°23' W 071°03'0 0.0
2018-Feb-20 03:57N 42°23' W 071°03'0 0.0
2018-Feb-20 03:30N 42°23' W 071°03'0 0.0
2018-Feb-20 02:54N 42°23' W 071°03'0 0.0
2018-Feb-20 02:27N 42°23' W 071°03'0 0.0
2018-Feb-20 01:51N 42°23' W 071°03'0 0.0
2018-Feb-20 01:03N 42°23' W 071°03'0 0.0
2018-Feb-20 00:57N 42°23' W 071°03'0 0.0
2018-Feb-20 00:27N 42°23' W 071°03'0 0.0
2018-Feb-20 00:00N 42°23' W 071°03'0 0.0
2018-Feb-19 23:21N 42°23' W 071°03'0 0.0
2018-Feb-19 22:54N 42°23' W 071°03'0 0.0
2018-Feb-19 22:30N 42°23' W 071°03'0 0.0
2018-Feb-19 21:57N 42°23' W 071°03'0 0.0
2018-Feb-19 21:24N 42°23' W 071°03'0 0.0
2018-Feb-19 21:00N 42°23' W 071°03'0 0.0
2018-Feb-19 20:30N 42°23' W 071°03'0 0.0
2018-Feb-19 20:00N 42°23' W 071°03'0 0.0
2018-Feb-19 19:30N 42°23' W 071°03'0 0.0
2018-Feb-19 19:00N 42°23' W 071°03'0 0.0
2018-Feb-19 18:27N 42°23' W 071°03'0 0.0
2018-Feb-19 18:00N 42°23' W 071°03'0 0.0
2018-Feb-19 17:30N 42°23' W 071°03'0 0.0
2018-Feb-19 17:00N 42°23' W 071°03'0 0.0
2018-Feb-19 16:30N 42°23' W 071°03'0 0.0
2018-Feb-19 16:00N 42°23' W 071°03'0 0.0
2018-Feb-19 15:21N 42°23' W 071°03'0 0.0
2018-Feb-19 14:51N 42°23' W 071°03'0 0.0
2018-Feb-19 14:18N 42°23' W 071°03'0 0.0
2018-Feb-19 14:00N 42°23' W 071°03'0 0.0
2018-Feb-19 13:30N 42°23' W 071°03'0 0.0
2018-Feb-19 13:00N 42°23' W 071°03'0 0.0
2018-Feb-19 12:27N 42°23' W 071°03'0 0.0
2018-Feb-19 09:54N 42°23' W 071°03'0 0.0
2018-Feb-19 08:15N 42°23' W 071°03'0 0.0
2018-Feb-19 07:57N 42°23' W 071°03'0 0.0
2018-Feb-19 07:30N 42°23' W 071°03'0 0.0
2018-Feb-19 06:57N 42°23' W 071°03'0 0.0
2018-Feb-19 06:30N 42°23' W 071°03'0 0.0
2018-Feb-19 05:57N 42°23' W 071°03'0 0.0
2018-Feb-19 05:27N 42°23' W 071°03'0 0.0
2018-Feb-19 04:51N 42°23' W 071°03'0 0.0
2018-Feb-19 04:27N 42°23' W 071°03'0 0.0
2018-Feb-19 02:15N 42°23' W 071°03'0 0.0
2018-Feb-19 01:15N 42°23' W 071°03'0 0.0
2018-Feb-19 01:00N 42°23' W 071°03'0 0.0
2018-Feb-18 22:09N 42°23' W 071°03'0 0.0
2018-Feb-18 20:42N 42°23' W 071°03'0 0.0
2018-Feb-18 20:24N 42°23' W 071°03'0 0.0
2018-Feb-18 20:00N 42°23' W 071°03'0 0.0
2018-Feb-18 19:30N 42°23' W 071°03'0 0.0
2018-Feb-18 18:57N 42°23' W 071°03'0 0.0
2018-Feb-18 18:24N 42°23' W 071°03'0 0.0
2018-Feb-18 17:45N 42°23' W 071°03'0 0.0
2018-Feb-18 17:21N 42°23' W 071°03'0 0.0
2018-Feb-18 17:00N 42°23' W 071°03'0 0.0
2018-Feb-18 16:24N 42°23' W 071°03'0 0.0
2018-Feb-18 15:57N 42°23' W 071°03'0 0.0
2018-Feb-18 15:27N 42°23' W 071°03'0 0.0
2018-Feb-18 15:00N 42°23' W 071°03'0 0.0
2018-Feb-18 14:30N 42°23' W 071°03'0 0.0
2018-Feb-18 13:57N 42°23' W 071°03'0 0.0
2018-Feb-18 13:27N 42°23' W 071°03'0 0.0
2018-Feb-18 12:06N 42°23' W 071°03'0 0.0
2018-Feb-18 11:39N 42°23' W 071°03'0 0.0
2018-Feb-18 11:27N 42°23' W 071°03'0 0.0
2018-Feb-18 09:33N 42°23' W 071°03'0 0.0
2018-Feb-18 09:24N 42°23' W 071°03'0 0.0
2018-Feb-18 08:51N 42°23' W 071°03'0 0.0
2018-Feb-18 08:27N 42°23' W 071°03'0 0.0
2018-Feb-18 08:00N 42°23' W 071°03'0 0.0
2018-Feb-18 07:30N 42°23' W 071°03'0 0.0
2018-Feb-18 07:00N 42°23' W 071°03'0 0.0
2018-Feb-18 06:30N 42°23' W 071°03'0 0.0
2018-Feb-18 06:00N 42°23' W 071°03'0 0.0
2018-Feb-18 05:30N 42°23' W 071°03'0 0.0
2018-Feb-18 05:00N 42°23' W 071°03'0 0.0
2018-Feb-18 04:30N 42°23' W 071°03'0 0.0
2018-Feb-18 04:00N 42°23' W 071°03'0 0.0
2018-Feb-18 03:30N 42°23' W 071°03'0 0.0
2018-Feb-18 03:00N 42°23' W 071°03'0 0.0
2018-Feb-18 02:30N 42°23' W 071°03'0 0.0
2018-Feb-18 02:00N 42°23' W 071°03'0 0.0
2018-Feb-18 01:30N 42°23' W 071°03'0 0.0
2018-Feb-18 01:00N 42°23' W 071°03'0 0.0
2018-Feb-18 00:24N 42°23' W 071°03'0 0.0
2018-Feb-18 00:00N 42°23' W 071°03'0 0.0
2018-Feb-17 23:30N 42°23' W 071°03'0 0.0
2018-Feb-17 22:54N 42°23' W 071°03'0 0.0
2018-Feb-17 22:24N 42°23' W 071°03'0 0.0
2018-Feb-17 22:00N 42°23' W 071°03'0 0.0
2018-Feb-17 21:24N 42°23' W 071°03'0 0.0
2018-Feb-17 21:00N 42°23' W 071°03'0 0.0
2018-Feb-17 20:24N 42°23' W 071°03'0 0.0
2018-Feb-17 20:00N 42°23' W 071°03'0 0.0
2018-Feb-17 19:30N 42°23' W 071°03'0 0.0
2018-Feb-17 18:54N 42°23' W 071°03'0 0.0
2018-Feb-17 18:30N 42°23' W 071°03'0 0.0
2018-Feb-17 17:51N 42°23' W 071°03'0 0.0
2018-Feb-17 17:30N 42°23' W 071°03'0 0.0
2018-Feb-17 16:54N 42°23' W 071°03'0 0.0
2018-Feb-17 16:30N 42°23' W 071°03'0 0.0
2018-Feb-17 16:00N 42°23' W 071°03'0 0.0
2018-Feb-17 15:27N 42°23' W 071°03'0 0.0
2018-Feb-17 14:54N 42°23' W 071°03'0 0.0
2018-Feb-17 14:24N 42°23' W 071°03'0 0.0
2018-Feb-17 08:00N 42°23' W 071°03'0 0.0
2018-Feb-17 00:24N 42°23' W 071°03'0 0.0
2018-Feb-16 23:45N 42°23' W 071°03'0 0.0
2018-Feb-16 19:39N 42°23' W 071°03'0 0.0
2018-Feb-16 19:27N 42°23' W 071°03'0 0.0
2018-Feb-16 18:27N 42°23' W 071°03'0 0.0
2018-Feb-16 17:45N 42°23' W 071°03'0 0.0
2018-Feb-16 17:15N 42°23' W 071°03'0 0.0
2018-Feb-16 16:39N 42°23' W 071°03'0 0.0
2018-Feb-16 16:15N 42°23' W 071°03'0 0.0
2018-Feb-16 16:00N 42°23' W 071°03'0 0.0
2018-Feb-16 15:24N 42°23' W 071°03'0 0.0
2018-Feb-16 14:48N 42°23' W 071°03'0 0.0
2018-Feb-16 14:27N 42°23' W 071°03'0 0.0
2018-Feb-16 13:36N 42°23' W 071°03'0 0.0
2018-Feb-16 13:27N 42°23' W 071°03'0 0.0
2018-Feb-16 12:51N 42°23' W 071°03'0 0.0
2018-Feb-16 12:27N 42°23' W 071°03'0 0.0
2018-Feb-16 11:24N 42°23' W 071°03'0 0.0
2018-Feb-16 10:57N 42°23' W 071°03'0 0.0
2018-Feb-16 10:30N 42°23' W 071°03'0 0.0
2018-Feb-16 08:45N 42°23' W 071°03'0 0.0
2018-Feb-16 08:27N 42°23' W 071°03'0 0.0
2018-Feb-16 07:51N 42°23' W 071°03'0 0.0
2018-Feb-16 06:48N 42°23' W 071°03'0 0.0
2018-Feb-16 06:30N 42°23' W 071°03'0 0.0
2018-Feb-16 05:39N 42°23' W 071°03'0 0.0
2018-Feb-16 05:12N 42°23' W 071°03'0 0.0
2018-Feb-16 04:48N 42°23' W 071°03'0 0.0
2018-Feb-16 04:30N 42°23' W 071°03'0 0.0
2018-Feb-16 03:33N 42°23' W 071°03'0 0.0
2018-Feb-16 03:21N 42°23' W 071°03'0 0.0
2018-Feb-16 02:57N 42°23' W 071°03'0 0.0
2018-Feb-16 02:30N 42°23' W 071°03'0 0.0
2018-Feb-16 01:51N 42°23' W 071°03'0 0.0
2018-Feb-16 01:30N 42°23' W 071°03'0 0.0
2018-Feb-16 01:00N 42°23' W 071°03'2 4.7
2018-Feb-16 00:30N 42°21' W 071°01'4 8.4
2018-Feb-15 23:59N 42°22' W 070°55'5 9.6
2018-Feb-15 23:30N 42°23' W 070°50'5 9.9
2018-Feb-15 22:59N 42°23' W 070°43'5 9.9
2018-Feb-15 22:30N 42°23' W 070°36'3 5.5
2018-Feb-15 22:00N 42°23' W 070°32'1 2.4
2018-Feb-15 21:30N 42°23' W 070°33'0 0.8
2018-Feb-15 21:00N 42°23' W 070°33'0 0.5
2018-Feb-15 20:30N 42°23' W 070°34'1 2.3
2018-Feb-15 20:00N 42°24' W 070°34'0 0.9
2018-Feb-15 19:30N 42°24' W 070°34'0 0.8
2018-Feb-15 18:59N 42°23' W 070°35'0 0.5
2018-Feb-15 18:30N 42°23' W 070°35'0 0.4
2018-Feb-15 18:00N 42°23' W 070°35'0 0.4
2018-Feb-15 17:30N 42°23' W 070°35'0 0.3
2018-Feb-15 17:00N 42°23' W 070°35'1 1.6
2018-Feb-15 16:30N 42°23' W 070°34'0 0.3
2018-Feb-15 16:00N 42°23' W 070°34'0 0.7
2018-Feb-15 15:30N 42°23' W 070°34'2 3.0
2018-Feb-15 15:00N 42°24' W 070°32'0 0.7
2018-Feb-15 14:30N 42°24' W 070°33'0 0.1
2018-Feb-15 14:00N 42°24' W 070°33'0 0.1
2018-Feb-15 13:30N 42°24' W 070°33'0 0.2
2018-Feb-15 13:00N 42°24' W 070°33'1 1.0
2018-Feb-15 12:30N 42°24' W 070°33'0 0.4
2018-Feb-15 12:00N 42°24' W 070°33'0 0.4
2018-Feb-15 11:30N 42°24' W 070°33'0 0.6
2018-Feb-15 11:00N 42°23' W 070°33'0 0.9
2018-Feb-15 10:30N 42°24' W 070°32'1 1.5
2018-Feb-15 10:00N 42°25' W 070°32'2 3.6
2018-Feb-15 09:30N 42°26' W 070°31'1 1.7
2018-Feb-15 09:00N 42°26' W 070°32'2 3.0
2018-Feb-15 08:30N 42°24' W 070°32'1 2.8
2018-Feb-15 08:00N 42°24' W 070°31'0 0.4
2018-Feb-15 07:30N 42°24' W 070°30'0 0.8
2018-Feb-15 07:00N 42°24' W 070°31'0 0.8
2018-Feb-15 06:30N 42°24' W 070°31'2 3.4
2018-Feb-15 06:00N 42°25' W 070°30'1 1.4
2018-Feb-15 05:30N 42°26' W 070°30'0 0.7
2018-Feb-15 05:00N 42°26' W 070°30'0 0.6
2018-Feb-15 04:30N 42°25' W 070°30'0 0.6
2018-Feb-15 04:00N 42°25' W 070°31'0 0.7
2018-Feb-15 03:30N 42°25' W 070°31'0 0.7
2018-Feb-15 03:00N 42°24' W 070°31'0 0.8
2018-Feb-15 02:30N 42°24' W 070°31'0 0.6
2018-Feb-15 02:00N 42°24' W 070°31'0 0.5
2018-Feb-15 01:30N 42°24' W 070°31'0 0.5
2018-Feb-15 01:00N 42°23' W 070°31'0 0.4
2018-Feb-15 00:30N 42°23' W 070°31'0 0.3
2018-Feb-15 00:00N 42°23' W 070°31'0 0.4
2018-Feb-14 23:30N 42°23' W 070°31'0 0.3
2018-Feb-14 23:00N 42°23' W 070°31'0 0.3
2018-Feb-14 22:30N 42°23' W 070°31'1 1.0
2018-Feb-14 22:00N 42°23' W 070°32'1 3.0
2018-Feb-14 21:30N 42°25' W 070°31'0 0.6
2018-Feb-14 21:00N 42°24' W 070°32'0 0.7
2018-Feb-14 20:30N 42°24' W 070°32'0 0.6
2018-Feb-14 20:00N 42°24' W 070°32'1 2.0
2018-Feb-14 19:30N 42°23' W 070°33'0 0.3
2018-Feb-14 19:00N 42°23' W 070°33'1 2.7
2018-Feb-14 18:30N 42°25' W 070°33'1 1.6
2018-Feb-14 18:00N 42°25' W 070°33'2 4.1
2018-Feb-14 17:30N 42°23' W 070°33'1 1.6
2018-Feb-14 17:00N 42°24' W 070°32'2 4.1
2018-Feb-14 16:30N 42°23' W 070°30'1 2.5
2018-Feb-14 16:00N 42°24' W 070°31'2 4.3
2018-Feb-14 15:30N 42°26' W 070°32'0 0.4
2018-Feb-14 15:00N 42°26' W 070°33'1 1.1
2018-Feb-14 14:30N 42°25' W 070°33'1 1.0
2018-Feb-14 14:00N 42°25' W 070°32'1 1.0
2018-Feb-14 13:30N 42°24' W 070°32'1 1.4
2018-Feb-14 13:00N 42°25' W 070°32'1 1.2
2018-Feb-14 12:30N 42°25' W 070°32'1 1.1
2018-Feb-14 12:00N 42°25' W 070°32'1 1.1
2018-Feb-14 11:30N 42°24' W 070°32'1 1.3
2018-Feb-14 11:00N 42°25' W 070°31'1 2.3
2018-Feb-14 10:30N 42°25' W 070°30'0 0.9
2018-Feb-14 10:00N 42°25' W 070°30'0 1.0
2018-Feb-14 09:30N 42°25' W 070°31'0 0.9
2018-Feb-14 09:00N 42°24' W 070°31'0 0.9
2018-Feb-14 08:30N 42°24' W 070°31'0 0.5
2018-Feb-14 08:00N 42°24' W 070°31'2 3.5
2018-Feb-14 07:30N 42°25' W 070°30'0 1.0
2018-Feb-14 07:00N 42°25' W 070°30'1 1.0
2018-Feb-14 06:30N 42°24' W 070°30'1 1.1
2018-Feb-14 06:00N 42°24' W 070°31'1 1.1
2018-Feb-14 05:30N 42°23' W 070°31'1 1.1
2018-Feb-14 05:00N 42°23' W 070°32'1 2.5
2018-Feb-14 04:30N 42°24' W 070°33'1 1.0
2018-Feb-14 04:00N 42°24' W 070°34'1 1.1
2018-Feb-14 03:30N 42°23' W 070°34'1 1.1
2018-Feb-14 03:00N 42°23' W 070°34'0 0.9
2018-Feb-14 02:30N 42°23' W 070°34'1 1.8
2018-Feb-14 02:00N 42°24' W 070°35'0 1.0
2018-Feb-14 01:30N 42°23' W 070°34'0 1.0
2018-Feb-14 01:00N 42°23' W 070°34'0 0.9
2018-Feb-14 00:30N 42°23' W 070°34'1 2.3
2018-Feb-14 00:00N 42°23' W 070°35'0 0.8
2018-Feb-13 23:30N 42°23' W 070°35'0 0.6
2018-Feb-13 23:00N 42°23' W 070°34'0 0.5
2018-Feb-13 22:30N 42°23' W 070°34'0 0.6
2018-Feb-13 22:00N 42°23' W 070°34'1 2.2
2018-Feb-13 21:30N 42°22' W 070°33'0 0.7
2018-Feb-13 21:00N 42°22' W 070°33'2 3.6
2018-Feb-13 20:30N 42°24' W 070°32'1 2.4
2018-Feb-13 20:00N 42°23' W 070°34'1 1.0
2018-Feb-13 19:30N 42°22' W 070°34'1 1.6
2018-Feb-13 19:00N 42°22' W 070°33'1 2.9
2018-Feb-13 18:30N 42°24' W 070°32'2 2.2
2018-Feb-13 17:28N 42°21' W 070°32'2 3.7
2018-Feb-13 17:00N 42°23' W 070°32'2 3.9
2018-Feb-13 16:30N 42°25' W 070°32'  

Dump ship's entire track history